Time;durP1;ratioP1;P1;durP2;ratioP2;P2;SDS_P1;SDS_P2;PMS_P1;PMS_P2;Temp;Humidity;BMP_temperature;BMP_pressure;BME280_temperature;BME280_humidity;BME280_pressure;Samples;Min_cycle;Max_cycle;Signal;HPM_P1;HPM_P2
2023/03/24 00:01:55;;;;;;;4.30;1.40;;;;;;;11.50;84.82;99508.92;107748;1254;60410;-68
2023/03/24 00:04:23;;;;;;;2.80;1.20;;;;;;;11.53;84.59;99503.50;107874;1254;59667;-67
2023/03/24 00:06:51;;;;;;;3.60;1.40;;;;;;;11.57;84.42;99501.73;107829;1253;72528;-68
2023/03/24 00:09:17;;;;;;;2.50;1.40;;;;;;;11.60;84.31;99501.77;107996;1253;71660;-67
2023/03/24 00:11:44;;;;;;;3.10;1.50;;;;;;;11.64;84.02;99498.98;107760;1254;71470;-68
2023/03/24 00:14:11;;;;;;;3.70;1.60;;;;;;;11.67;83.77;99499.11;107599;1254;60451;-68
2023/03/24 00:16:41;;;;;;;4.50;1.60;;;;;;;11.70;83.60;99503.14;107785;1253;60426;-69
2023/03/24 00:19:09;;;;;;;3.40;1.20;;;;;;;11.73;83.75;99499.05;107901;1253;71718;-68
2023/03/24 00:21:36;;;;;;;4.00;1.60;;;;;;;11.76;83.41;99496.95;107612;1254;71174;-69
2023/03/24 00:24:04;;;;;;;3.00;1.30;;;;;;;11.79;83.44;99492.11;107748;1253;73820;-67
2023/03/24 00:26:31;;;;;;;3.10;1.20;;;;;;;11.80;83.23;99490.30;107557;1254;60524;-68
2023/03/24 00:28:57;;;;;;;4.10;1.60;;;;;;;11.82;83.10;99488.54;107580;1253;60447;-69
2023/03/24 00:31:24;;;;;;;5.00;1.60;;;;;;;11.85;83.08;99481.37;107487;1259;73676;-68
2023/03/24 00:33:51;;;;;;;3.10;1.60;;;;;;;11.86;83.20;99479.08;107350;1254;71266;-70
2023/03/24 00:36:20;;;;;;;3.50;1.30;;;;;;;11.87;83.18;99481.41;107572;1254;71155;-68
2023/03/24 00:38:48;;;;;;;3.80;1.70;;;;;;;11.88;83.19;99472.66;107507;1254;62029;-68
2023/03/24 00:41:18;;;;;;;4.00;1.50;;;;;;;11.89;83.49;99467.60;107349;1253;60497;-70
2023/03/24 00:43:47;;;;;;;3.90;1.60;;;;;;;11.88;83.76;99464.68;107754;1254;72710;-68
2023/03/24 00:46:27;;;;;;;3.40;2.00;;;;;;;11.87;84.00;99460.71;107683;1254;71253;-68
2023/03/24 00:49:04;;;;;;;4.80;1.60;;;;;;;11.85;84.39;99455.08;107641;1254;73739;-70
2023/03/24 00:51:36;;;;;;;4.40;1.60;;;;;;;11.84;84.71;99452.02;107454;1254;62534;-67
2023/03/24 00:54:03;;;;;;;3.00;1.60;;;;;;;11.81;85.04;99444.27;107488;1254;60693;-66
2023/03/24 00:56:32;;;;;;;4.30;1.50;;;;;;;11.80;85.59;99439.74;107327;1254;73658;-69
2023/03/24 00:59:01;;;;;;;5.10;1.90;;;;;;;11.77;85.93;99436.24;107359;1254;71450;-69
2023/03/24 01:01:32;;;;;;;4.00;1.60;;;;;;;11.73;86.30;99426.62;107542;1254;72077;-68
2023/03/24 01:03:59;;;;;;;4.00;1.50;;;;;;;11.70;86.49;99426.89;107598;1254;60535;-68
2023/03/24 01:06:26;;;;;;;4.80;1.70;;;;;;;11.68;86.73;99422.84;108014;1254;60334;-70
2023/03/24 01:08:52;;;;;;;4.00;1.60;;;;;;;11.67;86.89;99419.42;107349;1254;72891;-72
2023/03/24 01:11:23;;;;;;;4.90;1.90;;;;;;;11.64;87.28;99418.17;107486;1254;70951;-68
2023/03/24 01:13:51;;;;;;;3.10;1.80;;;;;;;11.64;87.49;99417.16;108988;1254;72626;-68
2023/03/24 01:16:18;;;;;;;5.60;1.90;;;;;;;11.63;87.49;99406.66;107788;1254;62003;-68
2023/03/24 01:18:44;;;;;;;4.00;1.80;;;;;;;11.64;87.72;99400.48;107773;1254;60451;-68
2023/03/24 01:21:11;;;;;;;4.10;1.80;;;;;;;11.64;88.07;99396.73;107717;1254;73161;-68
2023/03/24 01:23:40;;;;;;;3.60;1.50;;;;;;;11.64;88.12;99393.57;108108;1254;71498;-68
2023/03/24 01:26:09;;;;;;;5.80;1.90;;;;;;;11.63;88.56;99394.77;108060;1254;72603;-69
2023/03/24 01:28:39;;;;;;;3.30;1.80;;;;;;;11.63;88.76;99382.44;108217;1253;60773;-70
2023/03/24 01:31:10;;;;;;;2.90;1.70;;;;;;;11.61;88.93;99374.09;107848;1254;60556;-69
2023/03/24 01:33:37;;;;;;;3.20;1.80;;;;;;;11.61;89.07;99369.15;107710;1254;72580;-68
2023/03/24 01:36:05;;;;;;;4.10;1.70;;;;;;;11.62;89.38;99368.05;108075;1254;70126;-68
2023/03/24 01:38:33;;;;;;;3.50;1.60;;;;;;;11.65;89.25;99360.18;108182;1254;72052;-68
2023/03/24 01:41:00;;;;;;;4.10;1.80;;;;;;;11.66;89.39;99355.59;108077;1255;60823;-70
2023/03/24 01:43:32;;;;;;;3.30;1.70;;;;;;;11.68;89.34;99352.95;108298;1255;60097;-70
2023/03/24 01:46:05;;;;;;;3.60;1.80;;;;;;;11.71;89.42;99350.86;108237;1254;72719;-67
2023/03/24 01:48:37;;;;;;;3.50;1.70;;;;;;;11.71;89.57;99349.55;107869;1254;69937;-68
2023/03/24 01:51:10;;;;;;;3.10;1.50;;;;;;;11.72;89.71;99345.01;108070;1254;72089;-69
2023/03/24 01:53:43;;;;;;;3.70;1.60;;;;;;;11.74;89.58;99339.08;108186;1256;60603;-69
2023/03/24 01:56:11;;;;;;;3.50;1.80;;;;;;;11.76;89.62;99330.06;108213;1254;60363;-69
2023/03/24 01:58:42;;;;;;;4.30;1.60;;;;;;;11.79;89.96;99325.06;108190;1255;72336;-69
2023/03/24 02:01:09;;;;;;;3.90;1.70;;;;;;;11.79;89.76;99325.75;107894;1254;70105;-69
2023/03/24 02:03:39;;;;;;;3.00;1.40;;;;;;;11.79;90.14;99324.52;107914;1253;72508;-69
2023/03/24 02:06:07;;;;;;;4.20;1.70;;;;;;;11.80;90.04;99316.63;108014;1254;60511;-69
2023/03/24 02:08:43;;;;;;;3.80;2.00;;;;;;;11.82;90.11;99315.38;107857;1254;59114;-68
2023/03/24 02:11:10;;;;;;;4.00;1.70;;;;;;;11.83;90.46;99314.06;107785;1254;72354;-68
2023/03/24 02:13:36;;;;;;;2.50;1.40;;;;;;;11.87;90.42;99307.54;107582;1254;71464;-68
2023/03/24 02:16:12;;;;;;;3.00;1.50;;;;;;;11.88;90.51;99301.57;107766;1254;70873;-71
2023/03/24 02:18:43;;;;;;;2.90;1.40;;;;;;;11.88;90.62;99297.28;107391;1254;61535;-66
2023/03/24 02:21:27;;;;;;;4.30;1.50;;;;;;;11.88;90.19;99296.78;107270;1258;60464;-68
2023/03/24 02:23:54;;;;;;;3.70;1.90;;;;;;;11.87;90.48;99295.35;107632;1254;73226;-68
2023/03/24 02:27:02;;;;;;;3.20;1.60;;;;;;;11.85;90.52;99286.65;107408;1254;72702;-68
2023/03/24 02:30:14;;;;;;;3.30;1.60;;;;;;;11.84;90.88;99277.34;107199;1260;72741;-69
2023/03/24 02:32:59;;;;;;;3.60;1.70;;;;;;;11.84;90.96;99263.45;107250;1254;61760;-68
2023/03/24 02:35:38;;;;;;;3.70;1.50;;;;;;;11.84;91.03;99263.98;107376;1256;59231;-68
2023/03/24 02:38:33;;;;;;;3.50;1.50;;;;;;;11.83;91.20;99261.36;107340;1255;73656;-71
2023/03/24 02:41:08;;;;;;;3.90;1.60;;;;;;;11.84;91.15;99261.98;107049;1254;70122;-68
2023/03/24 02:43:56;;;;;;;3.10;1.30;;;;;;;11.86;91.13;99256.33;107144;1254;72736;-70
2023/03/24 02:46:43;;;;;;;3.30;1.70;;;;;;;11.88;91.27;99252.77;107273;1254;60459;-70
2023/03/24 02:49:26;;;;;;;2.30;1.30;;;;;;;11.89;91.42;99249.20;106957;1254;60437;-70
2023/03/24 02:52:23;;;;;;;2.70;1.50;;;;;;;11.90;91.40;99243.95;107422;1259;71900;-69
2023/03/24 02:54:56;;;;;;;2.70;1.30;;;;;;;11.89;91.57;99242.76;107100;1254;71356;-68
2023/03/24 02:57:33;;;;;;;2.70;1.50;;;;;;;11.89;91.67;99246.64;107259;1254;71205;-68
2023/03/24 03:00:25;;;;;;;2.70;1.50;;;;;;;11.88;91.84;99247.11;106915;1255;61769;-69
2023/03/24 03:02:57;;;;;;;2.90;1.50;;;;;;;11.91;91.95;99242.86;107120;1254;60474;-69
2023/03/24 03:05:33;;;;;;;3.40;1.70;;;;;;;11.92;91.90;99240.03;107287;1253;72681;-69
2023/03/24 03:08:02;;;;;;;3.20;1.70;;;;;;;11.95;92.04;99236.77;107189;1255;70744;-68
2023/03/24 03:10:35;;;;;;;3.60;1.60;;;;;;;11.94;92.24;99233.03;107467;1257;71125;-68
2023/03/24 03:13:09;;;;;;;4.10;1.50;;;;;;;11.95;92.12;99227.85;107392;1254;60891;-69
2023/03/24 03:15:41;;;;;;;4.10;1.80;;;;;;;11.95;92.25;99216.04;107037;1254;60617;-68
2023/03/24 03:18:24;;;;;;;4.10;1.80;;;;;;;11.94;92.20;99209.77;106805;1256;74590;-69
2023/03/24 03:20:57;;;;;;;4.90;2.00;;;;;;;11.95;92.57;99208.28;107044;1255;70117;-66
2023/03/24 03:23:35;;;;;;;2.70;1.50;;;;;;;11.95;92.43;99210.41;107180;1254;72742;-69
2023/03/24 03:26:08;;;;;;;3.30;1.90;;;;;;;11.96;92.25;99210.70;106964;1255;60493;-67
2023/03/24 03:28:40;;;;;;;3.10;1.80;;;;;;;11.96;92.37;99214.32;107402;1255;60372;-68
2023/03/24 03:31:16;;;;;;;2.40;1.60;;;;;;;11.98;92.56;99196.42;107469;1254;72352;-69
2023/03/24 03:33:50;;;;;;;3.50;1.60;;;;;;;11.97;92.77;99201.06;107114;1254;70035;-68
2023/03/24 03:36:23;;;;;;;2.70;1.60;;;;;;;11.99;92.74;99201.45;107003;1256;71411;-68
2023/03/24 03:39:10;;;;;;;3.00;1.80;;;;;;;12.00;92.91;99201.17;106928;1253;60805;-68
2023/03/24 03:41:38;;;;;;;2.50;1.60;;;;;;;12.00;92.94;99197.59;107387;1254;60364;-67
2023/03/24 03:44:06;;;;;;;2.70;1.60;;;;;;;12.00;93.09;99187.09;107279;1254;72911;-69
2023/03/24 03:46:35;;;;;;;3.60;1.70;;;;;;;12.00;93.24;99179.11;107219;1255;69709;-69
2023/03/24 03:49:05;;;;;;;3.60;1.70;;;;;;;12.00;93.28;99177.71;107182;1258;70271;-68
2023/03/24 03:51:32;;;;;;;3.30;1.70;;;;;;;12.01;93.43;99172.15;107350;1254;60566;-68
2023/03/24 03:54:04;;;;;;;2.70;1.50;;;;;;;12.02;93.31;99164.17;107355;1253;60359;-68
2023/03/24 03:56:34;;;;;;;3.00;1.70;;;;;;;12.03;93.42;99161.21;107057;1253;73005;-69
2023/03/24 03:59:01;;;;;;;2.80;1.50;;;;;;;12.03;93.86;99167.34;107192;1254;69560;-69
2023/03/24 04:01:32;;;;;;;3.40;1.90;;;;;;;12.02;94.33;99162.36;107094;1254;72751;-69
2023/03/24 04:04:08;;;;;;;2.90;1.80;;;;;;;12.01;94.89;99155.30;107040;1254;61630;-71
2023/03/24 04:06:49;;;;;;;3.00;1.80;;;;;;;11.97;95.91;99149.39;107433;1255;60391;-68
2023/03/24 04:09:43;;;;;;;3.30;1.60;;;;;;;11.95;96.51;99149.50;107281;1254;72696;-68
2023/03/24 04:12:37;;;;;;;3.00;1.70;;;;;;;11.89;96.89;99141.45;107024;1256;69719;-69
2023/03/24 04:15:22;;;;;;;3.50;1.70;;;;;;;11.82;97.58;99133.81;107057;1254;70223;-70
2023/03/24 04:18:14;;;;;;;2.80;2.00;;;;;;;11.78;98.06;99132.55;107287;1255;61739;-69
2023/03/24 04:21:01;;;;;;;3.20;1.80;;;;;;;11.73;98.56;99134.12;107017;1254;60551;-71
2023/03/24 04:23:44;;;;;;;2.80;1.90;;;;;;;11.69;99.11;99123.29;107397;1254;72678;-68
2023/03/24 04:26:13;;;;;;;3.40;2.00;;;;;;;11.68;99.49;99129.18;107163;1254;72811;-69
2023/03/24 04:28:40;;;;;;;3.50;2.10;;;;;;;11.69;99.61;99122.36;107239;1254;71500;-69
2023/03/24 04:31:13;;;;;;;3.00;2.20;;;;;;;11.71;99.46;99113.77;106991;1256;60605;-68
2023/03/24 04:34:06;;;;;;;4.00;2.20;;;;;;;11.70;99.86;99109.80;107257;1255;60372;-68
2023/03/24 04:36:55;;;;;;;3.80;2.40;;;;;;;11.71;99.90;99104.55;107060;1253;72600;-67
2023/03/24 04:39:27;;;;;;;4.20;2.40;;;;;;;11.71;99.93;99112.27;106994;1255;70044;-69
2023/03/24 04:42:00;;;;;;;3.20;2.40;;;;;;;11.69;100.00;99114.51;107036;1254;72784;-69
2023/03/24 04:44:31;;;;;;;4.30;2.80;;;;;;;11.68;100.00;99107.89;107438;1255;59481;-68
2023/03/24 04:47:01;;;;;;;3.20;2.50;;;;;;;11.68;100.00;99103.96;107163;1255;60489;-69
2023/03/24 04:49:28;;;;;;;4.30;2.60;;;;;;;11.68;100.00;99093.10;107094;1255;72348;-70
2023/03/24 04:51:55;;;;;;;5.00;3.00;;;;;;;11.65;100.00;99092.55;106863;1257;69624;-68
2023/03/24 04:54:22;;;;;;;3.70;2.70;;;;;;;11.62;100.00;99088.01;107109;1254;70264;-68
2023/03/24 04:56:54;;;;;;;4.10;2.90;;;;;;;11.60;100.00;99085.39;107198;1254;60573;-69
2023/03/24 04:59:20;;;;;;;4.90;3.00;;;;;;;11.59;100.00;99084.46;107554;1254;60355;-70
2023/03/24 05:01:50;;;;;;;3.90;2.70;;;;;;;11.57;100.00;99084.48;107354;1254;73698;-68
2023/03/24 05:04:19;;;;;;;3.50;2.70;;;;;;;11.58;100.00;99082.66;107105;1260;72390;-68
2023/03/24 05:06:48;;;;;;;4.60;2.90;;;;;;;11.59;100.00;99077.63;107068;1254;72069;-68
2023/03/24 05:09:17;;;;;;;3.90;2.70;;;;;;;11.61;100.00;99077.81;106960;1254;62303;-70
2023/03/24 05:11:44;;;;;;;4.10;2.90;;;;;;;11.64;100.00;99073.73;106944;1255;60458;-68
2023/03/24 05:14:11;;;;;;;3.60;2.50;;;;;;;11.67;100.00;99073.58;107164;1254;72453;-69
2023/03/24 05:16:38;;;;;;;4.50;2.80;;;;;;;11.70;100.00;99070.64;107936;1255;69889;-69
2023/03/24 05:19:05;;;;;;;4.50;2.60;;;;;;;11.72;100.00;99068.48;107452;1253;71914;-70
2023/03/24 05:21:33;;;;;;;4.20;2.90;;;;;;;11.76;100.00;99066.74;106912;1255;62019;-72
2023/03/24 05:24:00;;;;;;;4.00;2.30;;;;;;;11.81;100.00;99065.06;107143;1254;60947;-72
2023/03/24 05:26:26;;;;;;;4.60;2.60;;;;;;;11.86;99.98;99051.73;107308;1255;74202;-72
2023/03/24 05:28:53;;;;;;;3.50;2.60;;;;;;;11.90;99.90;99051.46;106991;1255;70899;-74
2023/03/24 05:31:21;;;;;;;3.90;2.70;;;;;;;11.93;99.60;99052.25;107096;1254;72442;-73
2023/03/24 05:33:47;;;;;;;4.00;2.80;;;;;;;11.99;99.13;99049.91;107423;1254;60480;-72
2023/03/24 05:36:15;;;;;;;4.60;2.60;;;;;;;12.03;98.65;99052.94;106802;1254;296960;-71
2023/03/24 05:38:42;;;;;;;3.30;2.80;;;;;;;12.08;98.18;99054.39;107514;1254;75066;-72
2023/03/24 05:41:08;;;;;;;4.40;2.60;;;;;;;12.13;97.79;99050.48;107035;1258;71160;-73
2023/03/24 05:43:35;;;;;;;3.90;2.60;;;;;;;12.18;97.24;99049.19;106850;1254;73986;-74
2023/03/24 05:46:02;;;;;;;4.20;2.80;;;;;;;12.22;96.77;99051.48;107224;1256;62209;-72
2023/03/24 05:48:29;;;;;;;3.90;2.70;;;;;;;12.28;96.52;99055.17;107414;1254;59837;-73
2023/03/24 05:50:56;;;;;;;3.90;2.80;;;;;;;12.34;96.23;99056.04;107595;1254;73902;-72
2023/03/24 05:53:23;;;;;;;3.40;2.30;;;;;;;12.37;95.95;99059.64;107348;1254;70207;-72
2023/03/24 05:55:52;;;;;;;4.10;2.60;;;;;;;12.41;95.34;99040.67;106919;1254;72833;-73
2023/03/24 05:58:20;;;;;;;4.00;2.60;;;;;;;12.45;95.13;99042.48;107412;1254;61221;-71
2023/03/24 06:00:47;;;;;;;3.30;2.40;;;;;;;12.49;94.60;99051.20;107600;1254;60922;-73
2023/03/24 06:03:15;;;;;;;4.10;2.80;;;;;;;12.53;94.27;99053.63;107339;1255;74782;-72
2023/03/24 06:05:44;;;;;;;3.60;2.80;;;;;;;12.55;94.04;99062.10;108386;1254;69924;-72
2023/03/24 06:08:12;;;;;;;4.20;2.80;;;;;;;12.59;93.84;99061.88;107123;1257;71303;-72
2023/03/24 06:10:39;;;;;;;3.20;2.30;;;;;;;12.62;93.36;99072.19;107564;1255;60500;-71
2023/03/24 06:13:07;;;;;;;5.20;2.80;;;;;;;12.66;93.02;99067.59;107055;1253;60859;-73
2023/03/24 06:15:35;;;;;;;3.80;2.60;;;;;;;12.71;92.92;99067.84;107227;1254;73997;-73
2023/03/24 06:18:04;;;;;;;5.20;2.70;;;;;;;12.73;93.02;99069.36;107299;1253;69606;-72
2023/03/24 06:20:31;;;;;;;3.50;2.50;;;;;;;12.75;93.36;99076.03;107531;1254;71133;-71
2023/03/24 06:22:58;;;;;;;3.60;2.40;;;;;;;12.73;93.27;99073.83;107306;1254;61081;-72
2023/03/24 06:25:27;;;;;;;3.10;2.50;;;;;;;12.72;93.59;99075.48;107422;1254;60294;-73
2023/03/24 06:27:54;;;;;;;4.10;2.70;;;;;;;12.71;94.23;99082.98;107562;1255;74366;-73
2023/03/24 06:30:21;;;;;;;4.20;2.90;;;;;;;12.64;96.10;99085.58;107663;1254;71341;-75
2023/03/24 06:32:49;;;;;;;3.90;2.90;;;;;;;12.53;97.39;99086.16;107132;1254;72964;-74
2023/03/24 06:35:16;;;;;;;4.70;3.00;;;;;;;12.45;98.10;99087.55;107036;1254;60508;-74
2023/03/24 06:37:43;;;;;;;4.40;3.20;;;;;;;12.36;99.14;99086.20;106771;1255;60430;-74
2023/03/24 06:40:14;;;;;;;5.10;3.00;;;;;;;12.26;100.00;99090.14;108970;1254;72858;-75
2023/03/24 06:42:41;;;;;;;4.20;3.20;;;;;;;12.21;100.00;99089.25;108203;1254;70049;-76
2023/03/24 06:45:08;;;;;;;4.60;3.30;;;;;;;12.16;100.00;99091.40;107164;1254;73041;-76
2023/03/24 06:47:36;;;;;;;4.60;3.30;;;;;;;12.13;100.00;99103.67;107138;1253;61265;-75
2023/03/24 06:53:50;;;;;;;5.20;3.80;;;;;;;12.10;100.00;99134.15;108581;1253;75205;-74
2023/03/24 06:56:19;;;;;;;4.80;3.70;;;;;;;12.11;100.00;99155.84;107475;1255;71609;-77
2023/03/24 06:58:52;;;;;;;6.90;4.10;;;;;;;12.05;100.00;99162.00;108413;1254;72687;-74
2023/03/24 07:01:20;;;;;;;5.40;3.80;;;;;;;11.96;100.00;99154.63;107784;1253;61820;-74
2023/03/24 07:03:47;;;;;;;5.70;4.10;;;;;;;11.86;100.00;99161.27;106249;1254;60454;-73
2023/03/24 07:06:14;;;;;;;4.70;3.40;;;;;;;11.77;100.00;99161.34;106644;1258;73766;-73
2023/03/24 07:08:41;;;;;;;5.30;3.10;;;;;;;11.71;100.00;99169.98;106541;1255;69980;-74
2023/03/24 07:11:09;;;;;;;4.50;2.20;;;;;;;11.68;100.00;99176.63;106002;1254;71176;-77
2023/03/24 07:13:37;;;;;;;3.40;1.90;;;;;;;11.63;100.00;99190.73;106213;1254;61701;-74
2023/03/24 07:16:04;;;;;;;2.80;1.80;;;;;;;11.61;99.27;99186.95;106358;1255;60432;-73
2023/03/24 07:18:31;;;;;;;3.00;1.90;;;;;;;11.60;99.98;99183.12;106574;1254;74606;-74
2023/03/24 07:20:58;;;;;;;2.90;2.10;;;;;;;11.58;100.00;99192.37;106451;1254;70864;-74
2023/03/24 07:23:26;;;;;;;2.50;1.80;;;;;;;11.58;99.48;99191.36;106613;1256;71830;-75
2023/03/24 07:25:53;;;;;;;2.70;1.60;;;;;;;11.59;98.23;99200.70;106903;1254;59866;-74
2023/03/24 07:28:20;;;;;;;3.50;1.60;;;;;;;11.63;97.20;99210.63;106427;1254;60569;-76
2023/03/24 07:30:48;;;;;;;3.20;1.70;;;;;;;11.70;96.89;99207.67;106246;1258;73763;-75
2023/03/24 07:33:15;;;;;;;3.00;1.50;;;;;;;11.75;96.73;99217.03;106467;1258;70594;-77
2023/03/24 07:35:48;;;;;;;1.90;1.30;;;;;;;11.82;96.38;99212.86;106391;1256;71930;-76
2023/03/24 07:38:15;;;;;;;3.10;1.40;;;;;;;11.90;96.07;99216.04;106572;1255;61996;-76
2023/03/24 07:40:42;;;;;;;2.90;1.30;;;;;;;11.98;94.98;99221.94;106602;1256;60362;-77
2023/03/24 07:43:10;;;;;;;2.40;1.30;;;;;;;12.11;92.63;99236.56;106517;1255;74853;-77
2023/03/24 07:45:37;;;;;;;2.40;1.40;;;;;;;12.21;91.62;99230.48;106952;1255;71004;-78
2023/03/24 07:48:04;;;;;;;2.00;1.30;;;;;;;12.33;90.01;99231.02;106608;1254;71742;-77
2023/03/24 07:50:31;;;;;;;2.80;1.30;;;;;;;12.44;89.05;99230.39;106507;1254;62249;-77
2023/03/24 07:52:59;;;;;;;2.90;1.50;;;;;;;12.53;88.83;99235.11;106054;1254;60570;-78
2023/03/24 07:55:26;;;;;;;2.50;1.00;;;;;;;12.56;87.50;99264.29;106365;1253;72974;-79
2023/03/24 07:57:53;;;;;;;2.10;1.10;;;;;;;12.64;85.90;99258.30;106541;1254;72224;-77
2023/03/24 08:00:21;;;;;;;2.20;1.00;;;;;;;12.78;85.49;99268.67;106737;1255;73338;-77
2023/03/24 08:02:50;;;;;;;1.40;0.80;;;;;;;12.86;85.33;99277.80;106361;1255;60467;-77
2023/03/24 08:05:19;;;;;;;1.60;1.00;;;;;;;12.87;84.14;99282.80;106227;1258;61586;-78
2023/03/24 08:07:54;;;;;;;2.00;1.00;;;;;;;12.85;84.07;99282.65;106234;1254;72665;-79
2023/03/24 08:10:24;;;;;;;3.50;1.10;;;;;;;12.81;82.94;99287.44;106527;1254;71592;-79
2023/03/24 08:12:52;;;;;;;3.00;1.10;;;;;;;12.82;82.13;99307.27;106201;1254;72973;-77
2023/03/24 08:15:19;;;;;;;1.60;0.70;;;;;;;12.82;80.12;99315.64;106045;1255;61376;-77
2023/03/24 08:17:47;;;;;;;2.10;1.00;;;;;;;12.93;80.29;99300.42;106960;1254;59505;-76
2023/03/24 08:20:14;;;;;;;2.10;1.10;;;;;;;13.12;80.11;99295.27;106877;1254;74122;-75
2023/03/24 08:22:48;;;;;;;2.80;0.80;;;;;;;13.20;77.52;99295.13;106127;1260;71492;-76
2023/03/24 08:25:18;;;;;;;2.30;0.80;;;;;;;13.25;76.39;99302.15;106068;1260;70606;-77
2023/03/24 08:27:46;;;;;;;2.70;1.00;;;;;;;13.33;77.30;99312.33;106319;1255;62485;-74
2023/03/24 08:30:19;;;;;;;2.40;0.80;;;;;;;13.28;75.88;99306.30;106002;1258;60808;-74
2023/03/24 08:32:52;;;;;;;2.40;0.80;;;;;;;13.29;75.95;99297.02;106107;1254;74590;-76
2023/03/24 08:35:22;;;;;;;1.90;0.70;;;;;;;13.33;75.87;99294.18;106581;1253;70213;-73
2023/03/24 08:37:49;;;;;;;1.70;0.90;;;;;;;13.29;75.00;99298.05;106186;1256;71652;-74
2023/03/24 08:40:22;;;;;;;3.70;1.40;;;;;;;13.21;74.23;99317.31;106487;1256;61037;-76
2023/03/24 08:42:54;;;;;;;3.10;0.80;;;;;;;13.21;73.29;99327.96;106044;1254;60854;-75
2023/03/24 08:45:26;;;;;;;2.80;1.00;;;;;;;13.24;72.43;99318.54;106304;1258;73906;-75
2023/03/24 08:47:54;;;;;;;3.30;0.80;;;;;;;13.31;72.09;99322.56;106280;1254;71078;-80
2023/03/24 08:50:26;;;;;;;2.40;0.70;;;;;;;13.32;70.89;99318.48;106160;1256;72227;-75
2023/03/24 08:52:55;;;;;;;1.90;0.70;;;;;;;13.21;69.28;99340.44;106489;1253;60493;-76
2023/03/24 08:55:23;;;;;;;3.10;0.70;;;;;;;13.16;69.52;99343.02;106785;1255;60333;-74
2023/03/24 08:57:51;;;;;;;2.50;1.00;;;;;;;13.11;69.44;99337.44;106731;1255;72898;-72
2023/03/24 09:00:19;;;;;;;3.20;0.90;;;;;;;12.99;70.14;99341.19;106109;1254;71401;-75
2023/03/24 09:02:49;;;;;;;2.90;0.80;;;;;;;13.00;70.20;99355.30;105964;1255;71352;-72
2023/03/24 09:05:19;;;;;;;4.50;0.90;;;;;;;13.04;70.93;99358.40;106477;1255;62094;-70
2023/03/24 09:08:03;;;;;;;4.10;1.10;;;;;;;13.15;70.60;99359.13;106239;1254;60478;-72
2023/03/24 09:10:30;;;;;;;3.00;0.80;;;;;;;13.22;70.98;99362.65;106154;1255;72724;-71
2023/03/24 09:12:56;;;;;;;2.90;0.90;;;;;;;13.31;70.81;99373.17;106068;1258;69736;-71
2023/03/24 09:15:23;;;;;;;4.80;1.10;;;;;;;13.45;71.76;99363.06;106915;1254;72656;-73
2023/03/24 09:17:50;;;;;;;2.30;0.90;;;;;;;13.63;71.96;99357.20;107139;1253;62028;-72
2023/03/24 09:20:17;;;;;;;3.00;1.00;;;;;;;13.71;70.35;99360.93;106304;1254;61202;-73
2023/03/24 09:22:45;;;;;;;2.80;0.80;;;;;;;13.69;69.48;99371.21;106268;1254;72677;-74
2023/03/24 09:25:17;;;;;;;3.20;0.90;;;;;;;13.57;68.93;99377.20;106290;1256;71248;-75
2023/03/24 09:27:45;;;;;;;3.20;0.90;;;;;;;13.51;70.28;99385.73;106049;1258;71964;-72
2023/03/24 09:30:13;;;;;;;4.30;1.10;;;;;;;13.36;68.29;99390.84;106219;1256;63660;-72
2023/03/24 09:32:41;;;;;;;4.50;1.30;;;;;;;13.17;64.29;99398.43;106159;1256;60434;-71
2023/03/24 09:35:08;;;;;;;4.00;1.10;;;;;;;12.98;65.00;99411.46;106882;1254;73377;-74
2023/03/24 09:37:36;;;;;;;6.30;1.20;;;;;;;12.90;66.49;99417.02;106355;1254;70958;-72
2023/03/24 09:40:03;;;;;;;6.00;2.00;;;;;;;12.83;67.29;99402.71;106171;1256;72330;-71
2023/03/24 09:42:38;;;;;;;4.90;1.30;;;;;;;12.88;67.43;99395.05;106174;1256;62050;-72
2023/03/24 09:45:25;;;;;;;3.90;1.40;;;;;;;12.89;68.09;99396.72;106236;1254;61253;-73
2023/03/24 09:48:01;;;;;;;6.90;1.50;;;;;;;12.91;67.30;99406.27;106453;1254;71965;-71
2023/03/24 09:50:34;;;;;;;6.40;1.60;;;;;;;12.94;67.34;99406.98;107945;1255;70436;-71
2023/03/24 09:53:15;;;;;;;7.80;1.70;;;;;;;13.11;66.92;99413.01;107762;1256;71467;-73
2023/03/24 09:55:44;;;;;;;6.30;1.30;;;;;;;13.23;67.32;99414.52;108106;1254;60896;-72
2023/03/24 09:58:12;;;;;;;8.60;1.70;;;;;;;13.22;66.87;99409.10;107083;1255;60301;-71
2023/03/24 10:00:39;;;;;;;6.70;1.50;;;;;;;13.22;67.09;99413.09;108016;1257;74549;-72
2023/03/24 10:03:18;;;;;;;5.40;1.80;;;;;;;13.24;66.66;99408.44;106238;1258;69958;-71
2023/03/24 10:05:57;;;;;;;5.30;1.50;;;;;;;13.36;67.03;99402.89;106288;1254;72013;-72
2023/03/24 10:08:39;;;;;;;6.80;1.80;;;;;;;13.43;66.48;99404.08;106454;1253;61763;-72
2023/03/24 10:11:29;;;;;;;6.80;1.60;;;;;;;13.47;66.81;99400.65;106023;1255;60492;-71
2023/03/24 10:14:33;;;;;;;6.30;1.80;;;;;;;13.51;66.43;99393.77;107161;1259;72437;-75
2023/03/24 10:17:12;;;;;;;5.80;1.80;;;;;;;13.47;65.47;99405.86;106240;1254;69698;-71
2023/03/24 10:19:47;;;;;;;7.10;1.80;;;;;;;13.47;65.27;99404.64;106279;1256;71415;-75
2023/03/24 10:22:38;;;;;;;8.00;2.10;;;;;;;13.53;65.49;99411.20;105901;1260;60723;-74
2023/03/24 10:25:21;;;;;;;7.30;2.10;;;;;;;13.52;65.47;99413.27;105922;1256;60938;-74
2023/03/24 10:27:57;;;;;;;7.00;2.10;;;;;;;13.52;65.71;99402.48;106251;1256;73938;-71
2023/03/24 10:30:31;;;;;;;5.90;2.00;;;;;;;13.54;65.53;99407.91;106639;1255;70027;-71
2023/03/24 10:32:58;;;;;;;7.10;1.70;;;;;;;13.60;65.26;99399.50;106466;1255;73100;-72
2023/03/24 10:35:34;;;;;;;4.80;1.50;;;;;;;13.81;65.08;99395.02;106126;1256;61991;-71
2023/03/24 10:38:08;;;;;;;5.20;1.60;;;;;;;13.96;64.05;99401.85;106284;1254;60413;-73
2023/03/24 10:40:34;;;;;;;7.50;1.90;;;;;;;13.99;63.35;99410.57;106058;1258;73944;-71
2023/03/24 10:43:04;;;;;;;5.00;1.60;;;;;;;14.09;63.87;99412.05;106344;1261;69441;-72
2023/03/24 10:45:38;;;;;;;5.30;1.60;;;;;;;14.10;63.61;99419.64;106318;1254;71539;-71
2023/03/24 10:48:08;;;;;;;6.20;1.50;;;;;;;14.06;62.53;99422.52;106369;1255;61726;-73
2023/03/24 10:50:41;;;;;;;5.90;1.60;;;;;;;13.96;62.41;99420.35;106548;1254;60468;-74
2023/03/24 10:53:16;;;;;;;6.30;1.90;;;;;;;13.93;62.98;99418.52;106174;1258;74418;-74
2023/03/24 10:55:43;;;;;;;5.10;1.70;;;;;;;13.92;63.12;99420.98;105843;1255;71311;-74
2023/03/24 10:58:19;;;;;;;8.00;2.10;;;;;;;13.86;62.48;99429.27;105971;1260;71055;-73
2023/03/24 11:00:47;;;;;;;8.40;2.10;;;;;;;13.85;63.21;99428.58;106206;1256;60453;-73
2023/03/24 11:03:25;;;;;;;6.50;1.80;;;;;;;13.88;63.39;99437.48;107014;1256;60454;-71
2023/03/24 11:06:00;;;;;;;7.90;2.30;;;;;;;13.98;63.54;99448.21;106702;1255;73998;-72
2023/03/24 11:08:30;;;;;;;7.10;1.80;;;;;;;14.02;62.28;99446.91;106277;1255;70452;-72
2023/03/24 11:10:57;;;;;;;4.60;1.80;;;;;;;14.11;63.14;99445.22;106767;1256;70619;-70
2023/03/24 11:13:29;;;;;;;5.10;1.50;;;;;;;14.20;63.35;99440.27;106187;1261;61846;-72
2023/03/24 11:16:08;;;;;;;5.10;1.60;;;;;;;14.16;61.96;99449.23;106523;1255;60425;-74
2023/03/24 11:18:35;;;;;;;6.50;1.80;;;;;;;14.20;62.70;99442.13;106447;1258;74330;-72
2023/03/24 11:21:03;;;;;;;6.40;2.20;;;;;;;14.26;63.22;99440.30;106614;1256;70976;-73
2023/03/24 11:23:44;;;;;;;6.90;2.50;;;;;;;14.33;63.14;99442.76;105966;1258;71439;-74
2023/03/24 11:26:21;;;;;;;8.00;1.90;;;;;;;14.37;61.79;99449.05;106525;1256;60851;-71
2023/03/24 11:28:55;;;;;;;8.00;1.80;;;;;;;14.51;61.70;99439.45;106396;1254;60614;-72
2023/03/24 11:31:29;;;;;;;6.00;1.70;;;;;;;14.57;60.58;99444.24;106012;1254;73935;-72
2023/03/24 11:34:18;;;;;;;3.50;1.40;;;;;;;14.55;60.21;99437.52;106287;1258;69976;-73
2023/03/24 11:36:50;;;;;;;5.40;1.60;;;;;;;14.64;60.86;99445.16;105973;1256;73358;-73
2023/03/24 11:39:18;;;;;;;6.40;1.80;;;;;;;14.54;60.64;99450.95;106606;1255;60471;-73
2023/03/24 11:42:02;;;;;;;5.30;1.70;;;;;;;14.41;60.96;99448.56;106845;1256;61423;-72
2023/03/24 11:44:32;;;;;;;8.00;2.10;;;;;;;14.36;61.63;99441.17;106280;1254;74012;-73
2023/03/24 11:47:05;;;;;;;8.10;2.00;;;;;;;14.47;62.01;99440.52;106496;1258;69640;-72
2023/03/24 11:49:37;;;;;;;5.70;1.90;;;;;;;14.43;61.93;99443.44;106733;1260;71256;-74